To NAV CANADA Home Page Login to a new session Search on AWWS site Feedback and Comments Disclaimer Vers la page française équivalente Tips FAQ What's new on the site To the Forecasts and Observations / NOTAM section To "File a Flight Plan" website Publications and other links Update of the User's profile FIC Telephone Numbers My Weather Data Folder Route Weather Data Regional Weather Data Local Weather Data To the Forecasts and Observations / NOTAM section
Request Generated 05/02/2016 at 05:54:07 UTC . Weather information available at that time is displayed.

METAR/TAF

LOURDES-DE-BLANC-SABLON/QC    

METAR CYBX 020500Z CCA 07002KT 8SM VCFG SCT020 M01/M02 A3023 RMK SC3
SLP240=
METAR CYBX 020500Z 07002KT 8SM VCFG SCT020 M01/M02 A3023 RMK ST3
SLP240=
METAR CYBX 020400Z 06003KT 8SM VCFG FEW030 M01/M01 A3024 RMK SC2
SLP244=
SPECI CYBX 020305Z 01002KT 8SM VCFG FEW030 M01/M01 A3025 RMK SC2
SLP247=
METAR CYBX 020300Z 03004KT 1/8SM FZFG VV000 M01/M02 A3025 RMK FG8
SLP247=

TAF AMD CYBX 020315Z 0203/0214 VRB03KT 6SM BR FEW003 TEMPO 0203/0206
1/2SM FZFG BKN002
FM020600 VRB03KT 1/2SM FZFG VV002
FM021200 15005KT 6SM BR BKN005 TEMPO 0212/0214 2SM BR
RMK NXT FCST BY 020800Z=
Your time UTC time
Weather data provided by Environment Canada and NAV CANADA